sensor_id;sensor_type;location;lat;lon;timestamp;temperature;humidity
45729;DHT22;31439;53.512;10.206;2022-09-09T00:04:27;15.20;99.90
45729;DHT22;31439;53.512;10.206;2022-09-09T00:12:50;15.20;99.90
45729;DHT22;31439;53.512;10.206;2022-09-09T00:15:22;15.20;99.90
45729;DHT22;31439;53.512;10.206;2022-09-09T00:18:36;15.20;99.90
45729;DHT22;31439;53.512;10.206;2022-09-09T00:21:05;15.20;99.90
45729;DHT22;31439;53.512;10.206;2022-09-09T00:23:45;15.20;99.90
45729;DHT22;31439;53.512;10.206;2022-09-09T00:26:34;15.10;99.90
45729;DHT22;31439;53.512;10.206;2022-09-09T00:31:48;15.10;99.90
45729;DHT22;31439;53.512;10.206;2022-09-09T00:34:23;15.10;99.90
45729;DHT22;31439;53.512;10.206;2022-09-09T00:36:52;15.10;99.90
45729;DHT22;31439;53.512;10.206;2022-09-09T00:39:34;15.10;99.90
45729;DHT22;31439;53.512;10.206;2022-09-09T00:42:18;15.10;99.90
45729;DHT22;31439;53.512;10.206;2022-09-09T00:47:38;15.20;99.90
45729;DHT22;31439;53.512;10.206;2022-09-09T00:58:34;15.30;99.90
45729;DHT22;31439;53.512;10.206;2022-09-09T01:01:03;15.30;99.90
45729;DHT22;31439;53.512;10.206;2022-09-09T01:03:43;15.30;99.90
45729;DHT22;31439;53.512;10.206;2022-09-09T01:09:10;15.30;99.90
45729;DHT22;31439;53.512;10.206;2022-09-09T01:14:30;15.30;99.90
45729;DHT22;31439;53.512;10.206;2022-09-09T01:16:56;15.30;99.90
45729;DHT22;31439;53.512;10.206;2022-09-09T01:22:30;15.40;99.90
45729;DHT22;31439;53.512;10.206;2022-09-09T01:25:28;15.30;99.90
45729;DHT22;31439;53.512;10.206;2022-09-09T01:28:04;15.30;99.90
45729;DHT22;31439;53.512;10.206;2022-09-09T01:30:34;15.30;99.90
45729;DHT22;31439;53.512;10.206;2022-09-09T01:33:00;15.30;99.90
45729;DHT22;31439;53.512;10.206;2022-09-09T01:38:17;15.30;99.90
45729;DHT22;31439;53.512;10.206;2022-09-09T01:40:43;15.30;99.90
45729;DHT22;31439;53.512;10.206;2022-09-09T01:43:09;15.60;99.90
45729;DHT22;31439;53.512;10.206;2022-09-09T01:45:35;15.30;99.90
45729;DHT22;31439;53.512;10.206;2022-09-09T01:48:00;15.30;99.90
45729;DHT22;31439;53.512;10.206;2022-09-09T01:50:27;15.30;99.90
45729;DHT22;31439;53.512;10.206;2022-09-09T01:52:57;15.30;99.90
45729;DHT22;31439;53.512;10.206;2022-09-09T01:55:41;15.30;99.90
45729;DHT22;31439;53.512;10.206;2022-09-09T02:00:49;15.30;99.90
45729;DHT22;31439;53.512;10.206;2022-09-09T02:03:29;15.30;99.90
45729;DHT22;31439;53.512;10.206;2022-09-09T02:08:55;15.30;99.90
45729;DHT22;31439;53.512;10.206;2022-09-09T02:11:23;15.40;99.90
45729;DHT22;31439;53.512;10.206;2022-09-09T02:13:54;15.30;99.90
45729;DHT22;31439;53.512;10.206;2022-09-09T02:16:31;15.30;99.90
45729;DHT22;31439;53.512;10.206;2022-09-09T02:21:31;15.20;99.90
45729;DHT22;31439;53.512;10.206;2022-09-09T02:23:59;15.20;99.90
45729;DHT22;31439;53.512;10.206;2022-09-09T02:26:26;15.20;99.90
45729;DHT22;31439;53.512;10.206;2022-09-09T02:28:55;15.10;99.90
45729;DHT22;31439;53.512;10.206;2022-09-09T02:31:24;15.10;99.90
45729;DHT22;31439;53.512;10.206;2022-09-09T02:33:59;15.20;99.90
45729;DHT22;31439;53.512;10.206;2022-09-09T02:36:29;15.10;99.90
45729;DHT22;31439;53.512;10.206;2022-09-09T02:38:56;15.10;99.90
45729;DHT22;31439;53.512;10.206;2022-09-09T02:41:35;15.00;99.90
45729;DHT22;31439;53.512;10.206;2022-09-09T02:44:02;15.00;99.90
45729;DHT22;31439;53.512;10.206;2022-09-09T02:47:05;15.00;99.90
45729;DHT22;31439;53.512;10.206;2022-09-09T02:49:57;15.00;99.90
45729;DHT22;31439;53.512;10.206;2022-09-09T02:52:42;15.00;99.90
45729;DHT22;31439;53.512;10.206;2022-09-09T02:58:04;15.00;99.90
45729;DHT22;31439;53.512;10.206;2022-09-09T03:00:31;14.90;99.90
45729;DHT22;31439;53.512;10.206;2022-09-09T03:02:57;14.70;99.90
45729;DHT22;31439;53.512;10.206;2022-09-09T03:05:23;14.90;99.90
45729;DHT22;31439;53.512;10.206;2022-09-09T03:07:49;15.00;99.90
45729;DHT22;31439;53.512;10.206;2022-09-09T03:10:21;14.90;99.90
45729;DHT22;31439;53.512;10.206;2022-09-09T03:13:12;15.00;99.90
45729;DHT22;31439;53.512;10.206;2022-09-09T03:15:41;14.90;99.90
45729;DHT22;31439;53.512;10.206;2022-09-09T03:18:10;14.90;99.90
45729;DHT22;31439;53.512;10.206;2022-09-09T03:20:35;14.90;99.90
45729;DHT22;31439;53.512;10.206;2022-09-09T03:23:01;14.90;99.90
45729;DHT22;31439;53.512;10.206;2022-09-09T03:25:27;14.90;99.90
45729;DHT22;31439;53.512;10.206;2022-09-09T03:27:54;14.90;99.90
45729;DHT22;31439;53.512;10.206;2022-09-09T03:30:24;14.90;99.90
45729;DHT22;31439;53.512;10.206;2022-09-09T03:32:51;14.90;99.90
45729;DHT22;31439;53.512;10.206;2022-09-09T03:35:16;14.90;99.90
45729;DHT22;31439;53.512;10.206;2022-09-09T03:37:42;14.90;99.90
45729;DHT22;31439;53.512;10.206;2022-09-09T03:40:08;14.90;99.90
45729;DHT22;31439;53.512;10.206;2022-09-09T03:42:35;14.90;99.90
45729;DHT22;31439;53.512;10.206;2022-09-09T03:45:03;14.90;99.90
45729;DHT22;31439;53.512;10.206;2022-09-09T03:47:29;14.90;99.90
45729;DHT22;31439;53.512;10.206;2022-09-09T03:49:55;14.90;99.90
45729;DHT22;31439;53.512;10.206;2022-09-09T03:52:20;14.90;99.90
45729;DHT22;31439;53.512;10.206;2022-09-09T03:54:47;14.90;99.90
45729;DHT22;31439;53.512;10.206;2022-09-09T03:57:13;14.90;99.90
45729;DHT22;31439;53.512;10.206;2022-09-09T03:59:42;14.90;99.90
45729;DHT22;31439;53.512;10.206;2022-09-09T04:02:07;14.80;99.90
45729;DHT22;31439;53.512;10.206;2022-09-09T04:04:34;14.80;99.90
45729;DHT22;31439;53.512;10.206;2022-09-09T04:07:00;14.80;99.90
45729;DHT22;31439;53.512;10.206;2022-09-09T04:09:26;14.80;99.90
45729;DHT22;31439;53.512;10.206;2022-09-09T04:11:51;14.80;99.90
45729;DHT22;31439;53.512;10.206;2022-09-09T04:14:18;14.70;99.90
45729;DHT22;31439;53.512;10.206;2022-09-09T04:16:44;14.80;99.90
45729;DHT22;31439;53.512;10.206;2022-09-09T04:19:10;14.80;99.90
45729;DHT22;31439;53.512;10.206;2022-09-09T04:21:42;14.70;99.90
45729;DHT22;31439;53.512;10.206;2022-09-09T04:24:08;14.80;99.90
45729;DHT22;31439;53.512;10.206;2022-09-09T04:26:35;14.70;99.90
45729;DHT22;31439;53.512;10.206;2022-09-09T04:29:02;14.70;99.90
45729;DHT22;31439;53.512;10.206;2022-09-09T04:31:28;14.70;99.90
45729;DHT22;31439;53.512;10.206;2022-09-09T04:33:54;14.70;99.90
45729;DHT22;31439;53.512;10.206;2022-09-09T04:36:20;14.60;99.90
45729;DHT22;31439;53.512;10.206;2022-09-09T04:38:46;14.60;99.90
45729;DHT22;31439;53.512;10.206;2022-09-09T04:41:12;14.60;99.90
45729;DHT22;31439;53.512;10.206;2022-09-09T04:43:39;14.70;99.90
45729;DHT22;31439;53.512;10.206;2022-09-09T04:46:05;14.60;99.90
45729;DHT22;31439;53.512;10.206;2022-09-09T04:48:30;14.70;99.90
45729;DHT22;31439;53.512;10.206;2022-09-09T04:51:12;14.70;99.90
45729;DHT22;31439;53.512;10.206;2022-09-09T04:53:38;14.70;99.90
45729;DHT22;31439;53.512;10.206;2022-09-09T04:56:15;14.70;99.90
45729;DHT22;31439;53.512;10.206;2022-09-09T04:58:42;14.80;99.90
45729;DHT22;31439;53.512;10.206;2022-09-09T05:01:19;14.90;99.90
45729;DHT22;31439;53.512;10.206;2022-09-09T05:03:45;14.80;99.90
45729;DHT22;31439;53.512;10.206;2022-09-09T05:06:14;15.00;99.90
45729;DHT22;31439;53.512;10.206;2022-09-09T05:08:41;14.80;99.90
45729;DHT22;31439;53.512;10.206;2022-09-09T05:11:33;14.80;99.90
45729;DHT22;31439;53.512;10.206;2022-09-09T05:14:02;14.90;99.90
45729;DHT22;31439;53.512;10.206;2022-09-09T05:16:28;14.70;99.90
45729;DHT22;31439;53.512;10.206;2022-09-09T05:18:53;14.80;99.90
45729;DHT22;31439;53.512;10.206;2022-09-09T05:21:21;14.80;99.90
45729;DHT22;31439;53.512;10.206;2022-09-09T05:23:47;14.80;99.90
45729;DHT22;31439;53.512;10.206;2022-09-09T05:26:18;14.80;99.90
45729;DHT22;31439;53.512;10.206;2022-09-09T05:28:44;14.80;99.90
45729;DHT22;31439;53.512;10.206;2022-09-09T05:31:11;14.80;99.90
45729;DHT22;31439;53.512;10.206;2022-09-09T05:33:39;14.80;99.90
45729;DHT22;31439;53.512;10.206;2022-09-09T05:36:13;14.80;99.90
45729;DHT22;31439;53.512;10.206;2022-09-09T05:38:39;14.80;99.90
45729;DHT22;31439;53.512;10.206;2022-09-09T05:41:06;14.80;99.90
45729;DHT22;31439;53.512;10.206;2022-09-09T05:43:32;14.80;99.90
45729;DHT22;31439;53.512;10.206;2022-09-09T05:46:07;14.80;99.90
45729;DHT22;31439;53.512;10.206;2022-09-09T05:48:34;14.90;99.90
45729;DHT22;31439;53.512;10.206;2022-09-09T05:51:00;14.90;99.90
45729;DHT22;31439;53.512;10.206;2022-09-09T05:53:27;14.90;99.90
45729;DHT22;31439;53.512;10.206;2022-09-09T05:56:03;14.90;99.90
45729;DHT22;31439;53.512;10.206;2022-09-09T05:58:30;14.90;99.90
45729;DHT22;31439;53.512;10.206;2022-09-09T06:03:28;14.90;99.90
45729;DHT22;31439;53.512;10.206;2022-09-09T06:06:01;15.00;99.90
45729;DHT22;31439;53.512;10.206;2022-09-09T06:08:27;15.00;99.90
45729;DHT22;31439;53.512;10.206;2022-09-09T06:10:53;15.00;99.90
45729;DHT22;31439;53.512;10.206;2022-09-09T06:13:19;15.00;99.90
45729;DHT22;31439;53.512;10.206;2022-09-09T06:15:51;15.00;99.90
45729;DHT22;31439;53.512;10.206;2022-09-09T06:18:17;15.10;99.90
45729;DHT22;31439;53.512;10.206;2022-09-09T06:21:00;15.20;99.90
45729;DHT22;31439;53.512;10.206;2022-09-09T06:23:27;15.10;99.90
45729;DHT22;31439;53.512;10.206;2022-09-09T06:26:07;15.10;99.90
45729;DHT22;31439;53.512;10.206;2022-09-09T06:28:35;15.10;99.90
45729;DHT22;31439;53.512;10.206;2022-09-09T06:31:02;15.20;99.90
45729;DHT22;31439;53.512;10.206;2022-09-09T06:33:37;15.30;99.90
45729;DHT22;31439;53.512;10.206;2022-09-09T06:36:11;15.30;99.90
45729;DHT22;31439;53.512;10.206;2022-09-09T06:38:38;15.30;99.90
45729;DHT22;31439;53.512;10.206;2022-09-09T06:41:03;15.20;99.90
45729;DHT22;31439;53.512;10.206;2022-09-09T06:43:31;15.30;99.90
45729;DHT22;31439;53.512;10.206;2022-09-09T06:46:05;15.30;99.90
45729;DHT22;31439;53.512;10.206;2022-09-09T06:48:31;15.30;99.90
45729;DHT22;31439;53.512;10.206;2022-09-09T06:51:11;15.40;99.90
45729;DHT22;31439;53.512;10.206;2022-09-09T06:53:38;15.70;99.90
45729;DHT22;31439;53.512;10.206;2022-09-09T06:58:42;15.90;99.90
45729;DHT22;31439;53.512;10.206;2022-09-09T07:01:11;16.00;99.90
45729;DHT22;31439;53.512;10.206;2022-09-09T07:03:41;16.00;99.90
45729;DHT22;31439;53.512;10.206;2022-09-09T07:06:09;16.00;99.90
45729;DHT22;31439;53.512;10.206;2022-09-09T07:08:39;15.90;99.90
45729;DHT22;31439;53.512;10.206;2022-09-09T07:11:07;15.90;99.90
45729;DHT22;31439;53.512;10.206;2022-09-09T07:13:33;15.90;99.90
45729;DHT22;31439;53.512;10.206;2022-09-09T07:16:10;15.90;99.90
45729;DHT22;31439;53.512;10.206;2022-09-09T07:18:35;15.90;99.90
45729;DHT22;31439;53.512;10.206;2022-09-09T07:21:02;15.90;99.90
45729;DHT22;31439;53.512;10.206;2022-09-09T07:23:29;16.00;99.90
45729;DHT22;31439;53.512;10.206;2022-09-09T07:25:56;16.10;99.90
45729;DHT22;31439;53.512;10.206;2022-09-09T07:28:22;16.00;99.90
45729;DHT22;31439;53.512;10.206;2022-09-09T07:31:01;16.00;99.90
45729;DHT22;31439;53.512;10.206;2022-09-09T07:33:28;15.90;99.90
45729;DHT22;31439;53.512;10.206;2022-09-09T07:36:02;15.90;99.90
45729;DHT22;31439;53.512;10.206;2022-09-09T07:38:28;15.90;99.90
45729;DHT22;31439;53.512;10.206;2022-09-09T07:41:03;16.00;99.90
45729;DHT22;31439;53.512;10.206;2022-09-09T07:43:28;16.10;99.90
45729;DHT22;31439;53.512;10.206;2022-09-09T07:45:58;16.10;99.90
45729;DHT22;31439;53.512;10.206;2022-09-09T07:48:23;16.20;99.90
45729;DHT22;31439;53.512;10.206;2022-09-09T07:50:49;16.30;99.90
45729;DHT22;31439;53.512;10.206;2022-09-09T07:53:14;16.30;99.90
45729;DHT22;31439;53.512;10.206;2022-09-09T07:55:40;16.40;99.90
45729;DHT22;31439;53.512;10.206;2022-09-09T07:58:05;16.40;99.90
45729;DHT22;31439;53.512;10.206;2022-09-09T08:00:31;16.50;99.90
45729;DHT22;31439;53.512;10.206;2022-09-09T08:02:58;16.70;99.90
45729;DHT22;31439;53.512;10.206;2022-09-09T08:05:26;16.60;99.90
45729;DHT22;31439;53.512;10.206;2022-09-09T08:07:51;16.60;99.90
45729;DHT22;31439;53.512;10.206;2022-09-09T08:10:17;16.60;99.90
45729;DHT22;31439;53.512;10.206;2022-09-09T08:12:43;16.60;99.90
45729;DHT22;31439;53.512;10.206;2022-09-09T08:15:08;16.60;99.90
45729;DHT22;31439;53.512;10.206;2022-09-09T08:17:34;16.70;99.90
45729;DHT22;31439;53.512;10.206;2022-09-09T08:20:07;16.70;99.90
45729;DHT22;31439;53.512;10.206;2022-09-09T08:22:36;16.60;99.90
45729;DHT22;31439;53.512;10.206;2022-09-09T08:25:03;16.70;99.90
45729;DHT22;31439;53.512;10.206;2022-09-09T08:27:31;16.70;99.90
45729;DHT22;31439;53.512;10.206;2022-09-09T08:30:02;16.70;99.90
45729;DHT22;31439;53.512;10.206;2022-09-09T08:32:28;16.70;99.90
45729;DHT22;31439;53.512;10.206;2022-09-09T08:34:53;16.80;99.90
45729;DHT22;31439;53.512;10.206;2022-09-09T08:37:19;16.80;99.90
45729;DHT22;31439;53.512;10.206;2022-09-09T08:39:45;16.80;99.90
45729;DHT22;31439;53.512;10.206;2022-09-09T08:42:19;16.80;99.90
45729;DHT22;31439;53.512;10.206;2022-09-09T08:47:51;16.80;99.90
45729;DHT22;31439;53.512;10.206;2022-09-09T08:50:36;16.90;99.90
45729;DHT22;31439;53.512;10.206;2022-09-09T08:55:41;17.00;99.90
45729;DHT22;31439;53.512;10.206;2022-09-09T08:58:51;17.10;99.90
45729;DHT22;31439;53.512;10.206;2022-09-09T09:08:53;17.30;99.90
45729;DHT22;31439;53.512;10.206;2022-09-09T09:11:22;17.30;99.90
45729;DHT22;31439;53.512;10.206;2022-09-09T09:14:03;17.40;99.90
45729;DHT22;31439;53.512;10.206;2022-09-09T09:16:45;17.50;99.90
45729;DHT22;31439;53.512;10.206;2022-09-09T09:19:15;17.40;99.90
45729;DHT22;31439;53.512;10.206;2022-09-09T09:21:43;17.70;99.90
45729;DHT22;31439;53.512;10.206;2022-09-09T09:24:27;17.80;99.90
45729;DHT22;31439;53.512;10.206;2022-09-09T09:26:59;17.70;99.90
45729;DHT22;31439;53.512;10.206;2022-09-09T09:29:26;17.80;99.90
45729;DHT22;31439;53.512;10.206;2022-09-09T09:31:55;17.90;99.90
45729;DHT22;31439;53.512;10.206;2022-09-09T09:34:22;18.00;99.90
45729;DHT22;31439;53.512;10.206;2022-09-09T09:36:57;18.20;99.90
45729;DHT22;31439;53.512;10.206;2022-09-09T09:39:30;18.10;99.90
45729;DHT22;31439;53.512;10.206;2022-09-09T09:42:09;18.20;99.90
45729;DHT22;31439;53.512;10.206;2022-09-09T09:44:36;18.30;99.90
45729;DHT22;31439;53.512;10.206;2022-09-09T09:47:18;18.40;99.90
45729;DHT22;31439;53.512;10.206;2022-09-09T09:49:58;18.50;99.90
45729;DHT22;31439;53.512;10.206;2022-09-09T09:52:29;18.60;99.90
45729;DHT22;31439;53.512;10.206;2022-09-09T09:54:57;18.90;99.90
45729;DHT22;31439;53.512;10.206;2022-09-09T09:57:30;18.90;99.90
45729;DHT22;31439;53.512;10.206;2022-09-09T10:00:16;18.80;99.90
45729;DHT22;31439;53.512;10.206;2022-09-09T10:02:44;18.70;99.90
45729;DHT22;31439;53.512;10.206;2022-09-09T10:05:19;18.60;99.90
45729;DHT22;31439;53.512;10.206;2022-09-09T10:07:46;18.50;99.90
45729;DHT22;31439;53.512;10.206;2022-09-09T10:10:17;18.50;99.90
45729;DHT22;31439;53.512;10.206;2022-09-09T10:13:27;18.50;99.90
45729;DHT22;31439;53.512;10.206;2022-09-09T10:24:12;19.00;99.90
45729;DHT22;31439;53.512;10.206;2022-09-09T10:35:02;19.40;99.90
45729;DHT22;31439;53.512;10.206;2022-09-09T10:37:52;19.50;99.90
45729;DHT22;31439;53.512;10.206;2022-09-09T10:42:46;19.20;99.90
45729;DHT22;31439;53.512;10.206;2022-09-09T10:45:23;19.10;99.90
45729;DHT22;31439;53.512;10.206;2022-09-09T10:48:19;19.20;99.90
45729;DHT22;31439;53.512;10.206;2022-09-09T10:53:43;19.00;99.90
45729;DHT22;31439;53.512;10.206;2022-09-09T10:56:15;19.10;99.90
45729;DHT22;31439;53.512;10.206;2022-09-09T10:58:46;19.30;99.90
45729;DHT22;31439;53.512;10.206;2022-09-09T11:01:22;19.20;99.90
45729;DHT22;31439;53.512;10.206;2022-09-09T11:03:57;19.20;99.90
45729;DHT22;31439;53.512;10.206;2022-09-09T11:06:32;19.10;99.90
45729;DHT22;31439;53.512;10.206;2022-09-09T11:09:01;19.00;99.90
45729;DHT22;31439;53.512;10.206;2022-09-09T11:11:39;19.00;99.90
45729;DHT22;31439;53.512;10.206;2022-09-09T11:14:31;19.00;99.90
45729;DHT22;31439;53.512;10.206;2022-09-09T11:17:04;19.00;99.90
45729;DHT22;31439;53.512;10.206;2022-09-09T11:24:59;19.20;99.90
45729;DHT22;31439;53.512;10.206;2022-09-09T11:27:31;19.20;99.90
45729;DHT22;31439;53.512;10.206;2022-09-09T11:30:25;19.40;99.90
45729;DHT22;31439;53.512;10.206;2022-09-09T11:33:25;19.80;99.90
45729;DHT22;31439;53.512;10.206;2022-09-09T11:38:28;20.40;99.90
45729;DHT22;31439;53.512;10.206;2022-09-09T11:41:01;20.40;99.90
45729;DHT22;31439;53.512;10.206;2022-09-09T11:43:31;20.20;99.90
45729;DHT22;31439;53.512;10.206;2022-09-09T11:46:02;20.10;99.90
45729;DHT22;31439;53.512;10.206;2022-09-09T11:48:35;20.00;99.90
45729;DHT22;31439;53.512;10.206;2022-09-09T11:53:49;20.10;99.90
45729;DHT22;31439;53.512;10.206;2022-09-09T11:59:05;19.70;99.90
45729;DHT22;31439;53.512;10.206;2022-09-09T12:01:43;19.60;99.90
45729;DHT22;31439;53.512;10.206;2022-09-09T12:04:14;19.60;99.90
45729;DHT22;31439;53.512;10.206;2022-09-09T12:07:04;19.40;99.90
45729;DHT22;31439;53.512;10.206;2022-09-09T12:09:47;19.30;99.90
45729;DHT22;31439;53.512;10.206;2022-09-09T12:17:22;19.10;99.90
45729;DHT22;31439;53.512;10.206;2022-09-09T12:19:59;19.00;99.90
45729;DHT22;31439;53.512;10.206;2022-09-09T12:22:41;19.00;99.90
45729;DHT22;31439;53.512;10.206;2022-09-09T12:30:46;18.90;99.90
45729;DHT22;31439;53.512;10.206;2022-09-09T12:33:17;18.90;99.90
45729;DHT22;31439;53.512;10.206;2022-09-09T12:35:45;19.00;99.90
45729;DHT22;31439;53.512;10.206;2022-09-09T12:38:17;19.00;99.90
45729;DHT22;31439;53.512;10.206;2022-09-09T12:40:55;19.10;99.90
45729;DHT22;31439;53.512;10.206;2022-09-09T12:43:22;19.10;99.90
45729;DHT22;31439;53.512;10.206;2022-09-09T12:45:52;19.20;99.90
45729;DHT22;31439;53.512;10.206;2022-09-09T12:48:27;19.20;99.90
45729;DHT22;31439;53.512;10.206;2022-09-09T12:50:54;19.30;99.90
45729;DHT22;31439;53.512;10.206;2022-09-09T12:53:31;19.50;99.90
45729;DHT22;31439;53.512;10.206;2022-09-09T12:56:04;19.40;99.90
45729;DHT22;31439;53.512;10.206;2022-09-09T12:58:32;19.50;99.90
45729;DHT22;31439;53.512;10.206;2022-09-09T13:00:59;19.50;99.90
45729;DHT22;31439;53.512;10.206;2022-09-09T13:03:26;19.70;99.90
45729;DHT22;31439;53.512;10.206;2022-09-09T13:05:52;19.60;99.90
45729;DHT22;31439;53.512;10.206;2022-09-09T13:08:19;19.80;99.90
45729;DHT22;31439;53.512;10.206;2022-09-09T13:10:59;19.80;99.90
45729;DHT22;31439;53.512;10.206;2022-09-09T13:13:28;19.80;99.90
45729;DHT22;31439;53.512;10.206;2022-09-09T13:15:59;19.80;99.90
45729;DHT22;31439;53.512;10.206;2022-09-09T13:18:36;19.70;99.90
45729;DHT22;31439;53.512;10.206;2022-09-09T13:21:04;19.50;99.90
45729;DHT22;31439;53.512;10.206;2022-09-09T13:23:35;19.50;99.90
45729;DHT22;31439;53.512;10.206;2022-09-09T13:26:06;19.50;99.90
45729;DHT22;31439;53.512;10.206;2022-09-09T13:28:46;19.40;99.90
45729;DHT22;31439;53.512;10.206;2022-09-09T13:31:28;19.40;99.90
45729;DHT22;31439;53.512;10.206;2022-09-09T13:33:54;19.50;99.90
45729;DHT22;31439;53.512;10.206;2022-09-09T13:36:32;19.30;99.90
45729;DHT22;31439;53.512;10.206;2022-09-09T13:38:59;19.20;99.90
45729;DHT22;31439;53.512;10.206;2022-09-09T13:41:43;19.20;99.90
45729;DHT22;31439;53.512;10.206;2022-09-09T13:44:25;19.10;99.90
45729;DHT22;31439;53.512;10.206;2022-09-09T13:47:02;19.00;99.90
45729;DHT22;31439;53.512;10.206;2022-09-09T13:49:29;18.90;99.90
45729;DHT22;31439;53.512;10.206;2022-09-09T13:52:10;18.90;99.90
45729;DHT22;31439;53.512;10.206;2022-09-09T13:54:36;18.80;99.90
45729;DHT22;31439;53.512;10.206;2022-09-09T13:57:02;18.70;99.90
45729;DHT22;31439;53.512;10.206;2022-09-09T13:59:29;18.70;99.90
45729;DHT22;31439;53.512;10.206;2022-09-09T14:01:55;18.60;99.90
45729;DHT22;31439;53.512;10.206;2022-09-09T14:04:21;18.50;99.90
45729;DHT22;31439;53.512;10.206;2022-09-09T14:06:47;18.50;99.90
45729;DHT22;31439;53.512;10.206;2022-09-09T14:09:15;18.40;99.90
45729;DHT22;31439;53.512;10.206;2022-09-09T14:11:41;18.40;99.90
45729;DHT22;31439;53.512;10.206;2022-09-09T14:14:07;18.30;99.90
45729;DHT22;31439;53.512;10.206;2022-09-09T14:16:33;18.40;99.90
45729;DHT22;31439;53.512;10.206;2022-09-09T14:18:58;18.30;99.90
45729;DHT22;31439;53.512;10.206;2022-09-09T14:21:25;18.10;99.90
45729;DHT22;31439;53.512;10.206;2022-09-09T14:23:51;18.10;99.90
45729;DHT22;31439;53.512;10.206;2022-09-09T14:26:21;18.00;99.90
45729;DHT22;31439;53.512;10.206;2022-09-09T14:28:47;18.00;99.90
45729;DHT22;31439;53.512;10.206;2022-09-09T14:31:13;17.90;99.90
45729;DHT22;31439;53.512;10.206;2022-09-09T14:33:39;18.00;99.90
45729;DHT22;31439;53.512;10.206;2022-09-09T14:36:05;17.80;99.90
45729;DHT22;31439;53.512;10.206;2022-09-09T14:38:34;17.80;99.90
45729;DHT22;31439;53.512;10.206;2022-09-09T14:41:05;17.80;99.90
45729;DHT22;31439;53.512;10.206;2022-09-09T14:43:31;17.80;99.90
45729;DHT22;31439;53.512;10.206;2022-09-09T14:46:04;17.80;99.90
45729;DHT22;31439;53.512;10.206;2022-09-09T14:48:31;17.60;99.90
45729;DHT22;31439;53.512;10.206;2022-09-09T14:50:56;17.60;99.90
45729;DHT22;31439;53.512;10.206;2022-09-09T14:53:22;17.60;99.90
45729;DHT22;31439;53.512;10.206;2022-09-09T14:55:47;17.60;99.90
45729;DHT22;31439;53.512;10.206;2022-09-09T14:58:13;17.70;99.90
45729;DHT22;31439;53.512;10.206;2022-09-09T15:00:39;17.60;99.90
45729;DHT22;31439;53.512;10.206;2022-09-09T15:03:04;17.60;99.90
45729;DHT22;31439;53.512;10.206;2022-09-09T15:05:32;17.50;99.90
45729;DHT22;31439;53.512;10.206;2022-09-09T15:07:58;17.50;99.90
45729;DHT22;31439;53.512;10.206;2022-09-09T15:10:24;17.40;99.90
45729;DHT22;31439;53.512;10.206;2022-09-09T15:12:49;17.50;99.90
45729;DHT22;31439;53.512;10.206;2022-09-09T15:15:18;17.40;99.90
45729;DHT22;31439;53.512;10.206;2022-09-09T15:17:43;17.30;99.90
45729;DHT22;31439;53.512;10.206;2022-09-09T15:20:09;17.30;99.90
45729;DHT22;31439;53.512;10.206;2022-09-09T15:22:35;17.30;99.90
45729;DHT22;31439;53.512;10.206;2022-09-09T15:25:02;17.30;99.90
45729;DHT22;31439;53.512;10.206;2022-09-09T15:27:27;17.20;99.90
45729;DHT22;31439;53.512;10.206;2022-09-09T15:29:56;17.30;99.90
45729;DHT22;31439;53.512;10.206;2022-09-09T15:32:23;17.30;99.90
45729;DHT22;31439;53.512;10.206;2022-09-09T15:34:49;17.30;99.90
45729;DHT22;31439;53.512;10.206;2022-09-09T15:37:16;17.30;99.90
45729;DHT22;31439;53.512;10.206;2022-09-09T15:39:42;17.40;99.90
45729;DHT22;31439;53.512;10.206;2022-09-09T15:42:07;17.40;99.90
45729;DHT22;31439;53.512;10.206;2022-09-09T15:44:42;17.40;99.90
45729;DHT22;31439;53.512;10.206;2022-09-09T15:47:13;17.50;99.90
45729;DHT22;31439;53.512;10.206;2022-09-09T15:49:38;17.50;99.90
45729;DHT22;31439;53.512;10.206;2022-09-09T15:52:04;17.50;99.90
45729;DHT22;31439;53.512;10.206;2022-09-09T15:54:36;17.60;99.90
45729;DHT22;31439;53.512;10.206;2022-09-09T15:57:05;17.60;99.90
45729;DHT22;31439;53.512;10.206;2022-09-09T15:59:31;17.60;99.90
45729;DHT22;31439;53.512;10.206;2022-09-09T16:01:58;17.60;99.90
45729;DHT22;31439;53.512;10.206;2022-09-09T16:04:25;17.60;99.90
45729;DHT22;31439;53.512;10.206;2022-09-09T16:06:52;17.50;99.90
45729;DHT22;31439;53.512;10.206;2022-09-09T16:09:19;17.70;99.90
45729;DHT22;31439;53.512;10.206;2022-09-09T16:11:45;17.80;99.90
45729;DHT22;31439;53.512;10.206;2022-09-09T16:14:13;17.80;99.90
45729;DHT22;31439;53.512;10.206;2022-09-09T16:16:39;17.90;99.90
45729;DHT22;31439;53.512;10.206;2022-09-09T16:19:10;17.90;99.90
45729;DHT22;31439;53.512;10.206;2022-09-09T16:21:39;18.10;99.90
45729;DHT22;31439;53.512;10.206;2022-09-09T16:24:09;18.40;99.90
45729;DHT22;31439;53.512;10.206;2022-09-09T16:26:39;18.70;99.90
45729;DHT22;31439;53.512;10.206;2022-09-09T16:29:05;18.60;99.90
45729;DHT22;31439;53.512;10.206;2022-09-09T16:31:31;18.40;99.90
45729;DHT22;31439;53.512;10.206;2022-09-09T16:33:57;18.40;99.90
45729;DHT22;31439;53.512;10.206;2022-09-09T16:36:28;18.30;99.90
45729;DHT22;31439;53.512;10.206;2022-09-09T16:38:59;18.30;99.90
45729;DHT22;31439;53.512;10.206;2022-09-09T16:41:26;18.30;99.90
45729;DHT22;31439;53.512;10.206;2022-09-09T16:44:04;18.30;99.90
45729;DHT22;31439;53.512;10.206;2022-09-09T16:46:32;18.20;99.90
45729;DHT22;31439;53.512;10.206;2022-09-09T16:48:58;18.30;99.90
45729;DHT22;31439;53.512;10.206;2022-09-09T16:51:30;18.30;99.90
45729;DHT22;31439;53.512;10.206;2022-09-09T16:53:58;18.20;99.90
45729;DHT22;31439;53.512;10.206;2022-09-09T16:56:27;18.10;99.90
45729;DHT22;31439;53.512;10.206;2022-09-09T16:58:58;18.10;99.90
45729;DHT22;31439;53.512;10.206;2022-09-09T17:01:25;18.00;99.90
45729;DHT22;31439;53.512;10.206;2022-09-09T17:03:59;17.90;99.90
45729;DHT22;31439;53.512;10.206;2022-09-09T17:06:27;17.90;99.90
45729;DHT22;31439;53.512;10.206;2022-09-09T17:09:01;17.80;99.90
45729;DHT22;31439;53.512;10.206;2022-09-09T17:11:27;17.80;99.90
45729;DHT22;31439;53.512;10.206;2022-09-09T17:13:54;17.70;99.90
45729;DHT22;31439;53.512;10.206;2022-09-09T17:16:22;17.70;99.90
45729;DHT22;31439;53.512;10.206;2022-09-09T17:18:52;17.70;99.90
45729;DHT22;31439;53.512;10.206;2022-09-09T17:21:23;17.70;99.90
45729;DHT22;31439;53.512;10.206;2022-09-09T17:23:51;17.50;99.90
45729;DHT22;31439;53.512;10.206;2022-09-09T17:26:18;17.60;99.90